Time;durP1;ratioP1;P1;durP2;ratioP2;P2;SDS_P1;SDS_P2;PMS_P1;PMS_P2;Temp;Humidity;BMP_temperature;BMP_pressure;BME280_temperature;BME280_humidity;BME280_pressure;Samples;Min_cycle;Max_cycle;Signal;HPM_P1;HPM_P2
2021/05/23 00:00:32;;;;;;;8.95;4.30;;;;;;;14.73;65.60;99531.25;1649017;85;21054;-85
2021/05/23 00:03:02;;;;;;;11.90;4.42;;;;;;;14.66;65.67;99527.22;1647619;85;21638;-86
2021/05/23 00:05:30;;;;;;;13.72;5.03;;;;;;;14.49;65.56;99525.89;1631381;86;21591;-81
2021/05/23 00:08:10;;;;;;;12.88;4.72;;;;;;;14.38;66.20;99533.09;1648039;85;21232;-83
2021/05/23 00:10:41;;;;;;;8.95;4.12;;;;;;;14.33;66.51;99541.14;1647063;85;21159;-84
2021/05/23 00:13:07;;;;;;;11.55;4.55;;;;;;;14.44;66.06;99534.45;1651222;85;21108;-83
2021/05/23 00:15:50;;;;;;;10.45;4.47;;;;;;;14.42;66.62;99536.98;1673236;84;21016;-81
2021/05/23 00:18:16;;;;;;;10.85;4.55;;;;;;;14.72;65.68;99535.73;1670637;84;21051;-87
2021/05/23 00:20:44;;;;;;;8.68;4.22;;;;;;;14.95;65.34;99531.94;1676459;84;20991;-83
2021/05/23 00:23:12;;;;;;;;;;;;;;;14.86;65.45;99529.14;1676399;84;21046;-82
2021/05/23 00:25:39;;;;;;;9.50;4.58;;;;;;;14.81;65.43;99531.59;1672570;84;20201;-85
2021/05/23 00:28:06;;;;;;;12.00;4.20;;;;;;;14.71;65.50;99534.11;1672312;84;21009;-81
2021/05/23 00:30:34;;;;;;;8.45;4.33;;;;;;;14.56;66.05;99530.74;1672869;84;21598;-81
2021/05/23 00:33:02;;;;;;;9.28;4.62;;;;;;;14.78;65.33;99537.30;1673694;85;21140;-82
2021/05/23 00:35:29;;;;;;;;;;;;;;;14.94;65.20;99532.14;1674526;85;21779;-88
2021/05/23 00:37:55;;;;;;;;;;;;;;;15.02;65.01;99531.95;1656947;84;20198;-86
2021/05/23 00:40:23;;;;;;;9.85;4.45;;;;;;;14.99;65.35;99539.83;1672987;84;20177;-85
2021/05/23 00:42:49;;;;;;;11.73;4.80;;;;;;;15.11;65.12;99540.57;1673464;84;21090;-86
2021/05/23 00:45:19;;;;;;;8.30;4.20;;;;;;;15.14;64.70;99540.17;1672178;84;21338;-85
2021/05/23 00:47:47;;;;;;;10.63;4.53;;;;;;;15.23;64.23;99546.95;1672679;84;21019;-84
2021/05/23 00:50:23;;;;;;;7.12;3.60;;;;;;;15.23;63.96;99544.28;1670997;84;21097;-87
2021/05/23 00:52:53;;;;;;;10.45;4.12;;;;;;;15.34;63.87;99545.02;1663298;85;21064;-83
2021/05/23 00:55:20;;;;;;;10.25;4.08;;;;;;;15.20;64.05;99542.03;1672320;84;21085;-86
2021/05/23 00:57:47;;;;;;;7.12;3.67;;;;;;;15.23;64.11;99538.97;1667979;84;21026;-83
2021/05/23 01:00:16;;;;;;;11.75;3.87;;;;;;;15.10;64.12;99541.58;1674202;84;21016;-83
2021/05/23 01:02:55;;;;;;;9.45;4.00;;;;;;;15.46;63.52;99543.08;1639239;84;21029;-83
2021/05/23 01:05:24;;;;;;;8.40;3.47;;;;;;;15.36;63.63;99538.16;1675024;84;20990;-83
2021/05/23 01:07:51;;;;;;;9.50;4.30;;;;;;;15.17;63.99;99541.09;1675067;84;20961;-85
2021/05/23 01:10:19;;;;;;;7.92;3.83;;;;;;;15.36;63.57;99540.82;1675412;84;21053;-83
2021/05/23 01:13:00;;;;;;;8.55;4.17;;;;;;;15.49;63.47;99540.84;1673485;84;20970;-85
2021/05/23 01:15:40;;;;;;;10.88;4.10;;;;;;;15.38;63.41;99538.28;1658341;84;21073;-83
2021/05/23 01:18:14;;;;;;;9.43;4.12;;;;;;;15.17;63.82;99543.76;1657435;85;21138;-85
2021/05/23 01:20:57;;;;;;;10.32;4.78;;;;;;;14.98;64.83;99544.02;1655244;85;21265;-83
2021/05/23 01:23:34;;;;;;;7.80;3.77;;;;;;;14.95;64.90;99554.53;1655288;86;21005;-87
2021/05/23 01:26:06;;;;;;;11.03;4.20;;;;;;;14.84;64.87;99553.79;1656726;84;21114;-86
2021/05/23 01:28:47;;;;;;;9.08;4.15;;;;;;;14.81;65.21;99546.21;1636127;86;21804;-84
2021/05/23 01:31:16;;;;;;;10.23;4.58;;;;;;;14.79;65.08;99557.04;1656178;85;21159;-83
2021/05/23 01:33:42;;;;;;;10.03;4.42;;;;;;;14.79;65.19;99553.54;1627692;86;21093;-85
2021/05/23 01:36:07;;;;;;;8.83;3.75;;;;;;;14.84;65.24;99559.11;1657207;85;21152;-86
2021/05/23 01:38:33;;;;;;;9.60;4.15;;;;;;;14.79;65.27;99562.36;1629853;86;27791;-85
2021/05/23 01:41:05;;;;;;;9.13;4.22;;;;;;;14.96;64.95;99560.17;1654530;86;26165;-85
2021/05/23 01:43:33;;;;;;;6.85;4.03;;;;;;;14.96;64.93;99562.83;1654439;85;21131;-88
2021/05/23 01:45:59;;;;;;;8.40;3.87;;;;;;;14.92;65.06;99561.58;1655087;85;21753;-83
2021/05/23 01:48:25;;;;;;;9.85;3.90;;;;;;;15.03;64.74;99566.31;1635731;84;22219;-86
2021/05/23 01:50:51;;;;;;;9.48;3.40;;;;;;;14.89;64.73;99564.64;1658385;84;23474;-82
2021/05/23 01:53:17;;;;;;;7.62;3.77;;;;;;;14.92;65.02;99564.23;1657990;84;25246;-86
2021/05/23 01:55:44;;;;;;;6.92;3.45;;;;;;;14.90;64.79;99562.30;1656264;85;20947;-84
2021/05/23 01:58:12;;;;;;;;;;;;;;;15.04;64.53;99569.30;1659527;85;21009;-86
2021/05/23 02:00:45;;;;;;;7.72;3.40;;;;;;;14.94;64.67;99574.16;1655840;84;21089;-83
2021/05/23 02:03:13;;;;;;;10.25;3.50;;;;;;;15.11;64.20;99573.30;1655279;85;21054;-82
2021/05/23 02:05:43;;;;;;;7.60;3.60;;;;;;;14.86;64.56;99567.69;1636907;86;21168;-85
2021/05/23 02:08:14;;;;;;;9.65;3.37;;;;;;;15.20;63.92;99573.95;1657626;85;21247;-85
2021/05/23 02:10:41;;;;;;;8.90;3.72;;;;;;;15.10;63.93;99573.49;1658346;85;21109;-87
2021/05/23 02:13:07;;;;;;;8.35;4.30;;;;;;;15.11;64.18;99583.13;1656321;85;21167;-86
2021/05/23 02:15:34;;;;;;;9.23;3.72;;;;;;;15.01;64.45;99578.19;1651829;85;23332;-84
2021/05/23 02:18:00;;;;;;;9.33;3.70;;;;;;;15.10;64.29;99582.80;1637244;85;21519;-83
2021/05/23 02:20:28;;;;;;;8.28;3.60;;;;;;;15.23;64.09;99590.31;1637108;86;20907;-85
2021/05/23 02:23:00;;;;;;;8.83;3.47;;;;;;;15.28;64.17;99588.91;1658669;84;21140;-83
2021/05/23 02:25:28;;;;;;;7.08;3.52;;;;;;;15.25;64.23;99594.91;1654265;85;21391;-85
2021/05/23 02:28:01;;;;;;;8.95;3.50;;;;;;;15.47;63.78;99596.61;1653447;85;20981;-84
2021/05/23 02:30:27;;;;;;;7.85;3.20;;;;;;;15.46;63.65;99598.95;1651248;85;20940;-84
2021/05/23 02:32:58;;;;;;;9.25;3.47;;;;;;;15.50;63.61;99601.02;1650717;85;21079;-83
2021/05/23 02:35:27;;;;;;;7.65;3.20;;;;;;;15.71;63.42;99615.19;1649779;85;21024;-82
2021/05/23 02:37:54;;;;;;;6.17;3.22;;;;;;;15.78;63.31;99617.36;1651350;86;21236;-85
2021/05/23 02:40:22;;;;;;;8.83;3.25;;;;;;;15.87;63.00;99616.66;1650937;86;21019;-84
2021/05/23 02:42:48;;;;;;;9.40;3.10;;;;;;;15.98;62.60;99620.04;1647882;85;21594;-86
2021/05/23 02:45:16;;;;;;;8.25;3.35;;;;;;;15.88;62.62;99620.95;1634018;85;20895;-86
2021/05/23 02:47:42;;;;;;;8.45;3.33;;;;;;;15.85;62.92;99618.69;1650204;85;21683;-88
2021/05/23 02:50:13;;;;;;;9.87;3.13;;;;;;;15.82;62.96;99620.43;1633198;85;21090;-89
2021/05/23 02:52:43;;;;;;;7.40;3.20;;;;;;;15.84;62.79;99619.73;1649970;85;21382;-87
2021/05/23 02:55:11;;;;;;;6.40;3.00;;;;;;;15.98;62.41;99616.86;1648713;85;21066;-88
2021/05/23 02:57:41;;;;;;;9.00;3.00;;;;;;;15.97;62.62;99612.58;1648896;85;21074;-87
2021/05/23 03:00:10;;;;;;;7.90;3.40;;;;;;;15.90;62.59;99610.94;1649846;85;21018;-86
2021/05/23 03:02:35;;;;;;;8.15;2.98;;;;;;;15.94;62.41;99612.14;1648632;85;21117;-90
2021/05/23 03:05:04;;;;;;;11.83;3.45;;;;;;;16.07;62.13;99612.67;1650106;85;21099;-89
2021/05/23 03:07:30;;;;;;;8.68;3.35;;;;;;;16.08;62.04;99611.63;1647804;85;21119;-89
2021/05/23 03:09:57;;;;;;;8.38;3.40;;;;;;;16.12;62.12;99612.34;1644686;85;21110;-87
2021/05/23 03:12:22;;;;;;;7.80;3.58;;;;;;;16.06;62.21;99615.83;1632695;85;20932;-85
2021/05/23 03:14:50;;;;;;;8.90;3.20;;;;;;;16.21;61.96;99614.83;1638033;86;21042;-85
2021/05/23 03:17:16;;;;;;;;;;;;;;;16.35;61.52;99613.78;1654873;85;21051;-87
2021/05/23 03:19:42;;;;;;;7.30;3.40;;;;;;;16.20;61.88;99615.84;1653098;85;20210;-87
2021/05/23 03:22:07;;;;;;;9.33;3.30;;;;;;;16.30;61.65;99613.59;1648784;85;20900;-88
2021/05/23 03:24:33;;;;;;;7.85;3.20;;;;;;;16.26;61.71;99619.02;1649094;86;21042;-88
2021/05/23 03:27:01;;;;;;;5.83;3.22;;;;;;;16.17;62.03;99620.25;1650193;86;21289;-89
2021/05/23 03:29:27;;;;;;;8.13;3.50;;;;;;;16.24;61.83;99628.55;1649617;85;22039;-87
2021/05/23 03:31:53;;;;;;;6.42;3.05;;;;;;;16.04;62.46;99626.41;1647916;85;20938;-90
2021/05/23 03:34:20;;;;;;;6.87;3.10;;;;;;;16.08;62.32;99628.95;1645949;86;20963;-90
2021/05/23 03:36:49;;;;;;;9.20;3.47;;;;;;;15.95;62.44;99630.58;1648872;85;21083;-89
2021/05/23 03:39:14;;;;;;;6.33;3.22;;;;;;;16.01;62.55;99626.81;1648189;85;22349;-84
2021/05/23 03:41:44;;;;;;;10.82;3.47;;;;;;;15.91;62.67;99633.85;1643251;85;21113;-88
2021/05/23 03:44:09;;;;;;;6.25;3.37;;;;;;;15.96;62.86;99631.42;1646678;85;20992;-85
2021/05/23 03:46:37;;;;;;;7.90;3.35;;;;;;;16.09;62.49;99631.41;1629575;85;20939;-88
2021/05/23 03:49:04;;;;;;;9.63;3.50;;;;;;;15.85;62.79;99634.66;1646655;85;21042;-86
2021/05/23 03:51:32;;;;;;;7.42;3.20;;;;;;;15.88;62.64;99628.94;1648814;85;21065;-86
2021/05/23 03:54:01;;;;;;;8.85;3.60;;;;;;;15.99;62.42;99629.68;1646718;85;21124;-89
2021/05/23 03:56:28;;;;;;;10.40;3.70;;;;;;;15.59;63.51;99637.58;1645255;85;21035;-87
2021/05/23 03:58:54;;;;;;;;;;;;;;;15.77;63.11;99637.85;1653407;84;21194;-83
2021/05/23 04:01:20;;;;;;;7.95;3.20;;;;;;;15.90;62.88;99633.56;1652796;84;20199;-82
2021/05/23 04:03:47;;;;;;;10.95;4.22;;;;;;;15.90;62.84;99624.25;1651728;83;21195;-83
2021/05/23 04:06:14;;;;;;;7.53;3.67;;;;;;;15.94;62.57;99631.62;1653935;83;21071;-86
2021/05/23 04:08:40;;;;;;;7.08;3.42;;;;;;;15.85;62.69;99617.36;1652829;85;21777;-83
2021/05/23 04:11:14;;;;;;;8.43;3.33;;;;;;;15.87;63.00;99636.63;1652204;85;20986;-84
2021/05/23 04:13:40;;;;;;;8.35;3.30;;;;;;;15.98;62.67;99637.35;1650373;85;21046;-86
2021/05/23 04:16:07;;;;;;;9.98;3.50;;;;;;;16.07;62.64;99635.31;1650703;85;21115;-87
2021/05/23 04:18:35;;;;;;;8.33;3.58;;;;;;;16.26;62.20;99642.98;1650082;85;21131;-85
2021/05/23 04:21:02;;;;;;;;;;;;;;;16.29;62.06;99643.91;1651902;85;21122;-87
2021/05/23 04:23:32;;;;;;;6.55;3.22;;;;;;;16.49;61.44;99639.38;1644037;86;21215;-89
2021/05/23 04:25:59;;;;;;;8.65;3.72;;;;;;;16.41;61.84;99646.26;1647211;86;21129;-87
2021/05/23 04:28:25;;;;;;;8.85;3.58;;;;;;;16.38;61.86;99641.34;1633644;85;21652;-87
2021/05/23 04:30:52;;;;;;;6.83;3.20;;;;;;;16.49;61.79;99646.03;1648874;84;21560;-91
2021/05/23 04:33:17;;;;;;;6.40;3.12;;;;;;;16.27;61.80;99646.78;1648511;85;21035;-91
2021/05/23 04:35:45;;;;;;;5.97;3.33;;;;;;;16.65;61.33;99653.29;1648790;85;20940;-84
2021/05/23 04:38:11;;;;;;;5.92;2.90;;;;;;;16.66;61.20;99655.75;1631897;86;21066;-86
2021/05/23 04:40:39;;;;;;;7.72;2.95;;;;;;;16.62;60.61;99649.18;1647646;85;21737;-89
2021/05/23 04:43:08;;;;;;;;;;;;;;;16.65;61.00;99655.95;1649858;85;21003;-84
2021/05/23 04:45:37;;;;;;;7.75;2.87;;;;;;;16.53;60.76;99656.28;1649779;85;20170;-86
2021/05/23 04:48:04;;;;;;;8.88;3.05;;;;;;;16.62;61.17;99656.38;1649610;85;21694;-86
2021/05/23 04:50:29;;;;;;;9.08;2.90;;;;;;;16.86;60.47;99661.06;1647041;85;21123;-87
2021/05/23 04:52:55;;;;;;;6.05;3.10;;;;;;;17.01;60.46;99672.84;1646318;85;20947;-86
2021/05/23 04:55:25;;;;;;;7.50;2.65;;;;;;;17.04;60.40;99683.58;1647724;85;21014;-87
2021/05/23 04:57:51;;;;;;;6.97;2.90;;;;;;;17.25;59.81;99676.34;1635191;86;21147;-89
2021/05/23 05:00:17;;;;;;;6.72;2.70;;;;;;;17.21;59.83;99683.94;1649352;85;20931;-91
2021/05/23 05:02:44;;;;;;;6.30;3.07;;;;;;;17.24;59.66;99686.18;1650890;84;21024;-86
2021/05/23 05:05:11;;;;;;;6.50;2.90;;;;;;;17.36;59.36;99686.34;1633731;85;21031;-86
2021/05/23 05:07:37;;;;;;;7.72;2.90;;;;;;;17.43;59.27;99688.45;1648598;85;21192;-89
2021/05/23 05:10:04;;;;;;;6.50;2.72;;;;;;;17.07;59.81;99695.16;1648399;85;21030;-90
2021/05/23 05:12:32;;;;;;;7.20;2.98;;;;;;;17.00;59.61;99690.38;1647264;85;21070;-92
2021/05/23 05:14:58;;;;;;;;;;;;;;;16.70;60.91;99694.80;1652930;85;21111;-89
2021/05/23 05:17:25;;;;;;;6.15;3.00;;;;;;;16.95;60.33;99690.17;1649499;85;21133;-86
2021/05/23 05:19:53;;;;;;;6.42;2.90;;;;;;;17.17;59.36;99694.22;1632892;86;21195;-91
2021/05/23 05:22:19;;;;;;;6.95;2.75;;;;;;;17.19;59.77;99687.34;1647340;85;21123;-88
2021/05/23 05:24:46;;;;;;;6.87;2.80;;;;;;;17.57;58.70;99684.70;1648373;85;20919;-87
2021/05/23 05:27:12;;;;;;;6.90;2.72;;;;;;;17.44;58.52;99683.43;1628861;86;21141;-91
2021/05/23 05:29:39;;;;;;;5.78;2.75;;;;;;;17.72;57.39;99682.26;1647108;85;21290;-86
2021/05/23 05:32:07;;;;;;;5.75;2.40;;;;;;;17.48;57.33;99694.00;1649021;85;25171;-89
2021/05/23 05:34:35;;;;;;;5.50;2.40;;;;;;;17.50;57.47;99693.25;1648313;85;21022;-89
2021/05/23 05:37:03;;;;;;;5.15;2.67;;;;;;;17.42;57.46;99696.17;1649810;85;21479;-84
2021/05/23 05:39:28;;;;;;;4.85;2.45;;;;;;;17.63;57.42;99698.23;1631901;86;21108;-88
2021/05/23 05:41:54;;;;;;;8.35;2.65;;;;;;;17.91;56.71;99693.38;1649444;85;21276;-89
2021/05/23 05:44:24;;;;;;;5.17;2.40;;;;;;;17.42;57.04;99698.84;1645075;85;20955;-88
2021/05/23 05:46:51;;;;;;;7.67;2.70;;;;;;;17.30;56.57;99693.34;1647988;85;21066;-86
2021/05/23 05:49:20;;;;;;;7.72;2.45;;;;;;;17.51;56.83;99698.91;1643506;85;21131;-87
2021/05/23 05:51:50;;;;;;;6.53;2.50;;;;;;;17.74;56.63;99701.05;1643773;85;21051;-84
2021/05/23 05:54:17;;;;;;;5.17;2.33;;;;;;;17.46;56.99;99696.03;1631551;85;21150;-88
2021/05/23 05:56:44;;;;;;;6.03;2.33;;;;;;;17.62;55.94;99692.58;1650023;84;21090;-86
2021/05/23 05:59:13;;;;;;;5.95;2.45;;;;;;;17.51;56.78;99697.58;1628344;86;21103;-85
2021/05/23 06:01:38;;;;;;;4.25;2.00;;;;;;;17.42;57.10;99709.52;1630383;86;21275;-87
2021/05/23 06:04:04;;;;;;;5.25;2.20;;;;;;;17.46;56.41;99697.38;1644534;85;20963;-86
2021/05/23 06:06:31;;;;;;;7.67;2.30;;;;;;;17.29;56.58;99710.90;1646342;85;21038;-87
2021/05/23 06:08:57;;;;;;;5.12;2.20;;;;;;;17.34;56.43;99722.59;1646089;85;21074;-86
2021/05/23 06:11:23;;;;;;;6.62;2.35;;;;;;;17.49;55.39;99715.63;1643987;85;20940;-88
2021/05/23 06:13:50;;;;;;;9.00;3.20;;;;;;;17.70;54.74;99716.38;1644816;86;21114;-86
2021/05/23 06:16:16;;;;;;;5.58;2.20;;;;;;;17.97;54.46;99717.59;1631255;86;21037;-85
2021/05/23 06:18:45;;;;;;;5.47;2.17;;;;;;;17.85;53.82;99714.24;1656304;85;21800;-87
2021/05/23 06:21:11;;;;;;;4.65;1.98;;;;;;;17.93;53.57;99716.68;1655579;85;20998;-85
2021/05/23 06:23:37;;;;;;;6.92;2.10;;;;;;;17.97;54.26;99725.07;1631009;85;20991;-86
2021/05/23 06:26:12;;;;;;;5.40;1.85;;;;;;;18.05;53.79;99708.80;1631904;86;21215;-86
2021/05/23 06:28:39;;;;;;;5.03;1.82;;;;;;;17.85;54.12;99723.59;1655004;85;21116;-90
2021/05/23 06:31:06;;;;;;;5.00;1.87;;;;;;;18.19;53.44;99714.84;1655585;84;21254;-89
2021/05/23 06:33:32;;;;;;;5.37;2.08;;;;;;;18.37;52.95;99713.30;1661172;84;21131;-88
2021/05/23 06:35:58;;;;;;;7.95;1.90;;;;;;;17.97;53.62;99724.27;1655025;85;21026;-89
2021/05/23 06:38:24;;;;;;;5.65;2.17;;;;;;;18.01;52.96;99720.14;1654169;85;20979;-90
2021/05/23 06:40:49;;;;;;;8.03;2.00;;;;;;;18.34;52.17;99724.42;1656283;85;20966;-90
2021/05/23 06:43:17;;;;;;;6.47;2.12;;;;;;;18.63;52.25;99708.23;1656243;85;21183;-92
2021/05/23 06:45:43;;;;;;;5.00;1.87;;;;;;;18.20;51.64;99718.36;1655528;86;21045;-88
2021/05/23 06:48:11;;;;;;;6.17;2.02;;;;;;;18.32;51.33;99727.31;1658706;84;21072;-87
2021/05/23 06:50:38;;;;;;;9.68;2.02;;;;;;;18.56;51.52;99716.30;1639702;85;21009;-91
2021/05/23 06:53:06;;;;;;;;;;;;;;;18.30;51.92;99723.52;1662928;83;20991;-93
2021/05/23 06:55:33;;;;;;;4.80;1.82;;;;;;;18.44;50.83;99734.93;1627399;84;21003;-85
2021/05/23 06:58:00;;;;;;;5.10;1.80;;;;;;;18.54;50.70;99728.27;1658266;83;20979;-86
2021/05/23 07:00:26;;;;;;;4.58;1.72;;;;;;;18.35;50.61;99728.22;1657524;83;21069;-86
2021/05/23 07:02:52;;;;;;;5.15;1.70;;;;;;;18.46;50.29;99724.02;1657322;83;20889;-87
2021/05/23 07:05:18;;;;;;;4.35;1.47;;;;;;;18.59;49.86;99729.23;1655427;82;20982;-84
2021/05/23 07:07:47;;;;;;;4.45;1.80;;;;;;;18.72;49.85;99727.48;1635293;86;21060;-87
2021/05/23 07:10:13;;;;;;;4.83;1.67;;;;;;;18.41;50.42;99733.19;1658210;85;21016;-85
2021/05/23 07:12:40;;;;;;;4.87;1.55;;;;;;;18.58;50.09;99720.93;1657570;85;21006;-90
2021/05/23 07:15:09;;;;;;;4.17;1.40;;;;;;;18.48;49.42;99737.45;1656400;85;21501;-83
2021/05/23 07:17:35;;;;;;;6.20;1.70;;;;;;;18.74;49.59;99742.28;1650961;84;21054;-89
2021/05/23 07:20:04;;;;;;;4.57;1.60;;;;;;;18.98;48.83;99729.92;1650095;85;21107;-88
2021/05/23 07:22:32;;;;;;;4.20;1.77;;;;;;;19.18;48.72;99736.93;1626252;86;21084;-89
2021/05/23 07:24:57;;;;;;;6.15;1.50;;;;;;;19.47;48.51;99733.21;1651905;85;21126;-86
2021/05/23 07:27:26;;;;;;;4.97;1.40;;;;;;;19.69;47.61;99738.37;1649931;85;20943;-86
2021/05/23 07:29:52;;;;;;;3.70;1.20;;;;;;;19.42;47.33;99771.87;1648558;86;21011;-85
2021/05/23 07:32:18;;;;;;;4.03;1.50;;;;;;;19.62;46.57;99749.68;1646702;85;21094;-84
2021/05/23 07:34:45;;;;;;;3.98;1.60;;;;;;;19.79;46.87;99745.08;1650835;85;21006;-86
2021/05/23 07:37:11;;;;;;;2.95;1.47;;;;;;;20.17;46.46;99753.32;1631239;86;21103;-87
2021/05/23 07:39:37;;;;;;;3.30;1.40;;;;;;;20.11;46.73;99760.94;1646995;85;21113;-82
2021/05/23 07:42:05;;;;;;;4.75;1.40;;;;;;;20.04;46.03;99764.53;1647643;85;20960;-87
2021/05/23 07:44:32;;;;;;;2.95;1.40;;;;;;;20.02;46.60;99765.79;1641560;86;21106;-85
2021/05/23 07:46:58;;;;;;;4.33;1.65;;;;;;;20.16;44.97;99767.23;1647479;85;21184;-85
2021/05/23 07:49:24;;;;;;;3.98;1.40;;;;;;;20.01;45.33;99766.33;1651865;84;20992;-86
2021/05/23 07:51:50;;;;;;;3.45;1.40;;;;;;;20.22;45.00;99782.94;1647445;85;20978;-84
2021/05/23 07:54:18;;;;;;;2.52;1.30;;;;;;;20.19;44.97;99771.33;1647798;85;20910;-85
2021/05/23 07:56:47;;;;;;;3.87;1.40;;;;;;;20.07;44.91;99770.77;1645944;85;21250;-84
2021/05/23 07:59:15;;;;;;;4.92;1.77;;;;;;;20.06;44.14;99787.89;1646368;85;21642;-87
2021/05/23 08:01:45;;;;;;;6.35;1.60;;;;;;;19.58;45.04;99796.73;1647980;85;21628;-85
2021/05/23 08:04:13;;;;;;;6.70;1.87;;;;;;;19.99;44.58;99776.44;1633047;86;21128;-86
2021/05/23 08:06:41;;;;;;;4.67;1.50;;;;;;;19.95;43.36;99780.63;1631098;86;21217;-90
2021/05/23 08:09:07;;;;;;;4.17;1.57;;;;;;;20.13;43.54;99775.73;1644944;85;21154;-85
2021/05/23 08:11:35;;;;;;;6.58;1.52;;;;;;;20.22;43.11;99772.20;1642703;85;21054;-85
2021/05/23 08:14:00;;;;;;;;;;;;;;;20.41;43.09;99784.48;1649715;85;21031;-86
2021/05/23 08:16:27;;;;;;;5.37;1.60;;;;;;;19.83;43.73;99781.11;1643856;85;20206;-86
2021/05/23 08:18:52;;;;;;;3.70;1.40;;;;;;;20.02;43.57;99786.70;1631221;85;21105;-83
2021/05/23 08:21:20;;;;;;;7.92;1.98;;;;;;;19.64;43.22;99786.95;1648625;85;21148;-87
2021/05/23 08:23:48;;;;;;;2.83;1.40;;;;;;;20.13;43.29;99784.30;1649074;85;21612;-90
2021/05/23 08:26:13;;;;;;;6.95;1.50;;;;;;;19.97;42.59;99797.30;1645046;85;21114;-85
2021/05/23 08:28:39;;;;;;;4.95;1.47;;;;;;;19.96;42.60;99796.98;1625906;86;21286;-85
2021/05/23 08:31:05;;;;;;;5.00;1.30;;;;;;;19.65;43.29;99806.83;1647713;85;20955;-83
2021/05/23 08:33:31;;;;;;;3.40;1.37;;;;;;;20.08;43.29;99782.30;1632109;85;20988;-84
2021/05/23 08:35:58;;;;;;;3.08;1.42;;;;;;;19.93;43.07;99796.10;1647961;85;20957;-83
2021/05/23 08:38:26;;;;;;;4.75;1.37;;;;;;;20.18;42.81;99787.11;1649009;85;21764;-90
2021/05/23 08:40:52;;;;;;;3.52;1.40;;;;;;;20.51;41.97;99797.85;1653865;84;21454;-92
2021/05/23 08:43:20;;;;;;;3.90;1.37;;;;;;;20.37;41.89;99796.73;1642783;85;20950;-88
2021/05/23 08:45:45;;;;;;;3.77;1.50;;;;;;;20.64;41.78;99788.27;1643483;85;21313;-88
2021/05/23 08:48:13;;;;;;;3.83;1.37;;;;;;;20.67;41.82;99803.94;1634085;85;20889;-85
2021/05/23 08:50:39;;;;;;;3.65;1.30;;;;;;;20.73;41.97;99809.72;1633079;85;21639;-84
2021/05/23 08:53:06;;;;;;;5.03;1.45;;;;;;;20.78;42.30;99793.73;1648590;85;21039;-85
2021/05/23 08:55:36;;;;;;;2.90;1.30;;;;;;;20.87;42.25;99797.43;1644729;84;21155;-82
2021/05/23 08:58:01;;;;;;;3.40;1.47;;;;;;;20.90;41.37;99821.13;1647009;85;21241;-85
2021/05/23 09:00:27;;;;;;;5.08;1.70;;;;;;;20.65;42.08;99815.43;1646055;86;20942;-88
2021/05/23 09:03:07;;;;;;;4.25;1.40;;;;;;;20.61;41.77;99807.51;1645542;85;21086;-88
2021/05/23 09:05:47;;;;;;;3.87;1.47;;;;;;;20.75;41.52;99807.61;1647600;86;21027;-80
2021/05/23 09:08:21;;;;;;;3.90;1.12;;;;;;;20.63;42.20;99821.50;1646023;85;21055;-79
2021/05/23 09:10:50;;;;;;;3.45;1.40;;;;;;;20.62;42.46;99822.56;1646757;85;21837;-81
2021/05/23 09:13:39;;;;;;;3.30;1.35;;;;;;;21.35;42.41;99819.18;1617032;86;21062;-83
2021/05/23 09:16:10;;;;;;;3.50;1.47;;;;;;;21.30;42.88;99815.02;1645520;85;20999;-84
2021/05/23 09:18:56;;;;;;;2.67;1.12;;;;;;;20.63;41.23;99826.86;1631094;85;38943;-84
2021/05/23 09:21:36;;;;;;;9.43;1.62;;;;;;;21.01;41.55;99812.78;1649230;84;21669;-83
2021/05/23 09:24:08;;;;;;;3.05;1.20;;;;;;;20.94;40.71;99812.38;1642480;85;21173;-84
2021/05/23 09:26:45;;;;;;;4.12;1.30;;;;;;;20.69;41.14;99827.31;1631865;86;21278;-83
2021/05/23 09:29:33;;;;;;;2.90;1.32;;;;;;;20.87;41.02;99821.59;1649816;85;21062;-83
2021/05/23 09:32:04;;;;;;;5.37;1.30;;;;;;;21.10;40.28;99811.35;1643647;85;21735;-85
2021/05/23 09:36:02;;;;;;;;;;;;;;;;;;;;;
2021/05/23 09:37:55;;;;;;;;;;;;;;;;;;;;;
2021/05/23 09:40:22;;;;;;;5.37;1.20;;;;;;;21.62;39.29;99798.54;1637216;85;21236;-84
2021/05/23 09:42:50;;;;;;;2.90;1.20;;;;;;;21.86;39.63;99801.45;1646845;85;21089;-83
2021/05/23 09:45:16;;;;;;;3.12;1.22;;;;;;;21.59;40.09;99803.05;1645301;85;21028;-83
2021/05/23 09:47:54;;;;;;;5.08;1.27;;;;;;;21.76;39.35;99811.98;1600885;85;20986;-84
2021/05/23 09:50:41;;;;;;;4.70;1.17;;;;;;;21.66;38.40;99819.33;1629147;85;22296;-83
2021/05/23 09:53:31;;;;;;;;;;;;;;;21.88;38.58;99811.42;1648654;85;21772;-83
2021/05/23 09:56:15;;;;;;;5.33;1.50;;;;;;;22.01;37.45;99819.72;1644796;85;20210;-82
2021/05/23 09:58:48;;;;;;;4.20;1.20;;;;;;;21.82;37.30;99815.06;1624731;85;21663;-85
2021/05/23 10:01:29;;;;;;;2.58;1.22;;;;;;;21.90;37.93;99815.75;1630358;85;21093;-83
2021/05/23 10:03:56;;;;;;;3.77;1.12;;;;;;;21.95;38.59;99820.69;1651292;84;21135;-83
2021/05/23 10:06:33;;;;;;;3.17;1.00;;;;;;;22.19;38.11;99817.38;1644456;85;21858;-82
2021/05/23 10:08:59;;;;;;;4.42;1.20;;;;;;;21.75;37.63;99833.22;1649241;85;21031;-85
2021/05/23 10:11:25;;;;;;;4.55;1.15;;;;;;;21.54;37.24;99825.79;1632407;86;20907;-84
2021/05/23 10:13:52;;;;;;;2.73;1.07;;;;;;;21.48;38.10;99829.66;1645428;85;21138;-85
2021/05/23 10:16:18;;;;;;;4.78;1.35;;;;;;;21.62;38.60;99825.41;1642722;85;21170;-84
2021/05/23 10:18:49;;;;;;;3.80;0.95;;;;;;;22.15;38.38;99833.70;1650279;85;20986;-85
2021/05/23 10:21:14;;;;;;;2.90;1.10;;;;;;;21.92;37.37;99825.20;1652433;85;21053;-85
2021/05/23 10:23:56;;;;;;;3.77;1.30;;;;;;;21.97;36.55;99808.34;1626562;86;20947;-84
2021/05/23 10:26:30;;;;;;;3.60;1.02;;;;;;;22.11;36.93;99814.25;1654075;85;21094;-86
2021/05/23 10:29:02;;;;;;;3.83;1.42;;;;;;;21.70;37.07;99812.94;1653428;85;21092;-85
2021/05/23 10:31:34;;;;;;;4.50;1.40;;;;;;;21.52;37.30;99819.30;1641554;85;21152;-80
2021/05/23 10:33:59;;;;;;;3.85;1.20;;;;;;;21.83;37.82;99827.46;1650451;85;21059;-81
2021/05/23 10:36:39;;;;;;;3.37;1.20;;;;;;;22.31;37.06;99817.87;1637069;86;20919;-85
2021/05/23 10:39:13;;;;;;;2.55;1.20;;;;;;;22.14;36.94;99824.02;1653009;84;21101;-84
2021/05/23 10:41:40;;;;;;;4.12;1.10;;;;;;;22.13;37.80;99839.86;1657323;84;22335;-83
2021/05/23 10:44:12;;;;;;;5.70;1.25;;;;;;;21.47;36.38;99833.41;1652374;85;21035;-84
2021/05/23 10:46:52;;;;;;;3.15;1.30;;;;;;;22.12;35.49;99840.91;1654259;85;21277;-81
2021/05/23 10:49:19;;;;;;;2.75;1.10;;;;;;;21.96;36.97;99851.09;1653502;85;21143;-84
2021/05/23 10:51:55;;;;;;;2.10;0.95;;;;;;;21.97;37.64;99845.98;1652684;85;20958;-82
2021/05/23 10:54:25;;;;;;;4.10;1.20;;;;;;;21.83;37.80;99845.44;1654626;85;21311;-82
2021/05/23 10:57:05;;;;;;;3.90;1.45;;;;;;;21.74;38.28;99839.64;1621170;86;21070;-82
2021/05/23 10:59:32;;;;;;;2.80;1.07;;;;;;;22.12;37.88;99854.89;1649626;85;21358;-84
2021/05/23 11:01:59;;;;;;;3.40;1.10;;;;;;;21.58;37.88;99857.83;1611302;85;22428;-86
2021/05/23 11:04:36;;;;;;;3.25;1.20;;;;;;;21.80;37.82;99861.53;1654007;85;26625;-84
2021/05/23 11:07:12;;;;;;;3.22;1.10;;;;;;;21.81;37.09;99851.09;1650090;85;21201;-84
2021/05/23 11:09:45;;;;;;;5.33;1.35;;;;;;;21.67;37.92;99850.53;1647830;85;21227;-84
2021/05/23 11:12:13;;;;;;;2.33;1.00;;;;;;;22.06;37.83;99852.62;1629891;86;21103;-83
2021/05/23 11:14:41;;;;;;;5.05;1.07;;;;;;;21.48;37.22;99871.30;1651576;85;21067;-83
2021/05/23 11:17:09;;;;;;;3.02;1.17;;;;;;;21.37;37.23;99849.30;1630492;85;21107;-80
2021/05/23 11:19:37;;;;;;;3.70;1.20;;;;;;;21.65;36.78;99845.09;1634363;86;21086;-87
2021/05/23 11:22:07;;;;;;;4.08;1.20;;;;;;;21.74;36.91;99857.11;1647406;84;20980;-84
2021/05/23 11:24:37;;;;;;;3.10;1.10;;;;;;;21.86;35.75;99843.11;1642324;84;21082;-84
2021/05/23 11:27:21;;;;;;;3.85;1.00;;;;;;;21.99;35.47;99842.55;1646400;85;21108;-84
2021/05/23 11:29:55;;;;;;;4.47;1.10;;;;;;;22.22;35.44;99845.14;1647177;85;21574;-84
2021/05/23 11:32:20;;;;;;;3.45;1.07;;;;;;;22.23;35.77;99850.82;1629658;86;21002;-83
2021/05/23 11:34:50;;;;;;;2.55;0.85;;;;;;;22.27;35.63;99848.99;1629062;85;21155;-84
2021/05/23 11:37:16;;;;;;;3.42;1.10;;;;;;;21.93;35.32;99852.91;1647867;85;21075;-81
2021/05/23 11:39:48;;;;;;;3.10;1.12;;;;;;;22.16;35.72;99839.38;1647558;85;21116;-83
2021/05/23 11:42:18;;;;;;;2.67;1.00;;;;;;;22.52;36.06;99855.39;1647995;85;21031;-81
2021/05/23 11:44:46;;;;;;;3.47;1.30;;;;;;;22.46;36.12;99858.50;1646429;85;21069;-84
2021/05/23 11:47:11;;;;;;;5.28;1.00;;;;;;;22.54;35.64;99859.48;1647377;85;20976;-84